Time;durP1;ratioP1;P1;durP2;ratioP2;P2;SDS_P1;SDS_P2;PMS_P1;PMS_P2;Temp;Humidity;BMP_temperature;BMP_pressure;BME280_temperature;BME280_humidity;BME280_pressure;Samples;Min_cycle;Max_cycle;Signal;HPM_P1;HPM_P2
2023/12/12 00:00:24;;;;;;;31.83;17.27;;;5.90;99.90;;;;;;5196181;28;20427;-76
2023/12/12 00:02:56;;;;;;;70.65;28.88;;;5.70;99.90;;;;;;5207041;28;20148;-76
2023/12/12 00:05:27;;;;;;;50.97;26.40;;;5.70;99.90;;;;;;5206562;28;20061;-76
2023/12/12 00:07:58;;;;;;;84.75;21.48;;;5.60;99.90;;;;;;5207320;28;20089;-76
2023/12/12 00:10:29;;;;;;;37.78;19.65;;;5.60;99.90;;;;;;5206989;28;20021;-76
2023/12/12 00:13:00;;;;;;;38.25;19.27;;;5.70;99.90;;;;;;5207231;28;20026;-75
2023/12/12 00:15:31;;;;;;;37.33;18.63;;;5.50;99.90;;;;;;5206930;28;20036;-76
2023/12/12 00:18:02;;;;;;;16.75;14.95;;;5.60;99.90;;;;;;5207305;28;20440;-76
2023/12/12 00:20:33;;;;;;;19.55;17.55;;;5.80;99.90;;;;;;5207278;28;20026;-76
2023/12/12 00:23:04;;;;;;;27.35;19.95;;;5.80;99.90;;;;;;5206983;28;20108;-75
2023/12/12 00:25:35;;;;;;;26.13;21.60;;;5.90;99.90;;;;;;5189141;28;20040;-75
2023/12/12 00:28:05;;;;;;;28.20;19.50;;;5.80;99.90;;;;;;5206731;28;20123;-76
2023/12/12 00:30:36;;;;;;;25.45;20.65;;;6.00;99.90;;;;;;5206735;28;20037;-76
2023/12/12 00:33:07;;;;;;;30.50;19.58;;;5.60;99.90;;;;;;5206994;28;20017;-76
2023/12/12 00:35:38;;;;;;;35.92;20.85;;;5.70;99.90;;;;;;5206719;28;20037;-76
2023/12/12 00:38:09;;;;;;;66.22;20.55;;;5.90;99.90;;;;;;5206814;28;20017;-76
2023/12/12 00:40:40;;;;;;;39.50;20.02;;;5.50;99.90;;;;;;5206526;28;20060;-76
2023/12/12 00:43:11;;;;;;;24.73;19.67;;;5.70;99.90;;;;;;5206623;28;20025;-76
2023/12/12 00:45:42;;;;;;;50.00;21.50;;;5.90;99.90;;;;;;5206728;28;20697;-76
2023/12/12 00:48:12;;;;;;;37.85;19.83;;;5.90;99.90;;;;;;5206750;28;20469;-76
2023/12/12 00:50:44;;;;;;;28.90;21.10;;;5.90;99.90;;;;;;5206989;28;20100;-76
2023/12/12 00:53:15;;;;;;;31.60;20.90;;;5.90;99.90;;;;;;5189392;28;20100;-76
2023/12/12 00:55:46;;;;;;;26.23;20.30;;;5.80;99.90;;;;;;5206645;28;20026;-76
2023/12/12 00:58:17;;;;;;;20.52;18.33;;;5.90;99.90;;;;;;5206494;28;20087;-76
2023/12/12 01:00:48;;;;;;;22.88;19.30;;;6.00;99.90;;;;;;5206718;28;20021;-75
2023/12/12 01:03:19;;;;;;;19.00;17.20;;;5.90;99.90;;;;;;5209259;28;20543;-76
2023/12/12 01:05:50;;;;;;;21.30;17.90;;;5.60;99.90;;;;;;5210219;28;20128;-76
2023/12/12 01:08:20;;;;;;;20.58;18.50;;;5.80;99.90;;;;;;5210386;28;20025;-76
2023/12/12 01:10:51;;;;;;;20.38;17.33;;;5.70;99.90;;;;;;5210191;28;20026;-76
2023/12/12 01:13:22;;;;;;;19.40;17.42;;;5.50;99.90;;;;;;5210199;28;20461;-76
2023/12/12 01:15:53;;;;;;;18.13;16.40;;;5.70;99.90;;;;;;5210132;28;20025;-76
2023/12/12 01:18:24;;;;;;;19.23;17.27;;;5.90;99.90;;;;;;5210158;28;20108;-76
2023/12/12 01:20:55;;;;;;;18.80;17.00;;;5.90;99.90;;;;;;5209964;28;20022;-76
2023/12/12 01:23:26;;;;;;;18.75;16.92;;;6.00;99.90;;;;;;5210129;28;20376;-76
2023/12/12 01:25:57;;;;;;;18.17;16.48;;;5.90;99.90;;;;;;5209867;28;20120;-76
2023/12/12 01:28:28;;;;;;;18.70;16.90;;;5.50;99.90;;;;;;5192681;28;20018;-76
2023/12/12 01:30:59;;;;;;;21.13;19.00;;;5.60;99.90;;;;;;5210264;28;20059;-75
2023/12/12 01:33:30;;;;;;;18.67;16.85;;;5.60;99.90;;;;;;5210200;28;20030;-76
2023/12/12 01:36:01;;;;;;;19.05;17.27;;;5.80;99.90;;;;;;5209715;28;20040;-75
2023/12/12 01:38:32;;;;;;;18.58;16.92;;;5.70;99.90;;;;;;5209717;28;20029;-76
2023/12/12 01:41:03;;;;;;;18.60;16.90;;;5.80;99.90;;;;;;5209614;28;20067;-76
2023/12/12 01:43:34;;;;;;;19.55;17.63;;;5.90;99.90;;;;;;5209564;28;20025;-75
2023/12/12 01:46:08;;;;;;;21.58;19.42;;;6.00;99.90;;;;;;5209682;28;20075;-75
2023/12/12 01:48:40;;;;;;;23.08;20.60;;;5.70;99.90;;;;;;5209558;28;20029;-76
2023/12/12 01:51:12;;;;;;;32.28;27.35;;;5.80;99.90;;;;;;5191604;28;20033;-75
2023/12/12 01:53:46;;;;;;;30.52;24.75;;;5.70;99.90;;;;;;5209809;28;20026;-76
2023/12/12 01:56:18;;;;;;;26.30;22.45;;;5.70;99.90;;;;;;5209788;28;20493;-76
2023/12/12 01:58:52;;;;;;;26.38;22.27;;;5.90;99.90;;;;;;5209363;28;20030;-75
2023/12/12 02:01:23;;;;;;;32.38;26.52;;;5.90;99.90;;;;;;5192047;28;20021;-75
2023/12/12 02:03:56;;;;;;;32.88;24.27;;;5.80;99.90;;;;;;5209372;28;20038;-76
2023/12/12 02:06:28;;;;;;;27.42;23.67;;;5.70;99.90;;;;;;5209104;28;20050;-76
2023/12/12 02:08:59;;;;;;;21.35;19.20;;;5.40;99.90;;;;;;5209478;28;20030;-76
2023/12/12 02:11:30;;;;;;;20.48;18.40;;;5.50;99.90;;;;;;5209316;28;20049;-75
2023/12/12 02:14:01;;;;;;;21.08;18.98;;;5.60;99.90;;;;;;5191308;28;20085;-76
2023/12/12 02:16:32;;;;;;;21.42;19.25;;;5.80;99.90;;;;;;5209124;28;20021;-76
2023/12/12 02:19:03;;;;;;;23.48;21.08;;;5.70;99.90;;;;;;5190850;28;20404;-76
2023/12/12 02:21:33;;;;;;;29.80;25.38;;;5.70;99.90;;;;;;5208372;28;20037;-75
2023/12/12 02:24:05;;;;;;;23.20;20.80;;;5.80;99.90;;;;;;5208958;28;20048;-76
2023/12/12 02:26:36;;;;;;;24.48;21.90;;;5.40;99.90;;;;;;5190941;28;20029;-76
2023/12/12 02:29:07;;;;;;;24.58;21.95;;;5.60;99.90;;;;;;5208513;28;20416;-76
2023/12/12 02:31:38;;;;;;;25.48;22.77;;;5.80;99.90;;;;;;5191256;28;20820;-76
2023/12/12 02:34:09;;;;;;;25.73;22.67;;;5.80;99.90;;;;;;5208256;28;20048;-76
2023/12/12 02:36:40;;;;;;;25.40;22.70;;;5.70;99.90;;;;;;5208628;28;20113;-76
2023/12/12 02:39:11;;;;;;;26.88;24.15;;;5.50;99.90;;;;;;5208796;28;20372;-76
2023/12/12 02:41:42;;;;;;;25.10;22.55;;;5.50;99.90;;;;;;5208534;28;20053;-75
2023/12/12 02:44:13;;;;;;;23.02;20.55;;;5.60;99.90;;;;;;5191068;28;20091;-76
2023/12/12 02:46:44;;;;;;;27.92;21.98;;;5.60;99.90;;;;;;5190832;28;20053;-76
2023/12/12 02:49:15;;;;;;;23.27;20.88;;;5.40;99.90;;;;;;5208062;28;20033;-75
2023/12/12 02:51:45;;;;;;;23.60;21.38;;;5.50;99.90;;;;;;5208992;28;20357;-76
2023/12/12 02:54:16;;;;;;;23.67;21.48;;;5.60;99.90;;;;;;5190779;28;20041;-76
2023/12/12 02:56:47;;;;;;;23.27;20.90;;;5.60;99.90;;;;;;5207764;28;20026;-76
2023/12/12 02:59:18;;;;;;;22.55;20.05;;;5.40;99.90;;;;;;5208341;28;20380;-76
2023/12/12 03:01:49;;;;;;;22.33;20.15;;;5.50;99.90;;;;;;5208173;28;20017;-75
2023/12/12 03:04:20;;;;;;;22.77;20.52;;;5.70;99.90;;;;;;5190306;28;20083;-76
2023/12/12 03:06:51;;;;;;;20.75;18.85;;;5.60;99.90;;;;;;5207352;28;20065;-76
2023/12/12 03:09:22;;;;;;;23.88;21.67;;;5.70;99.90;;;;;;5190366;28;20052;-76
2023/12/12 03:11:55;;;;;;;21.35;19.25;;;5.60;99.90;;;;;;5207873;28;20033;-76
2023/12/12 03:14:30;;;;;;;22.45;20.33;;;5.70;99.90;;;;;;5207896;28;20030;-76
2023/12/12 03:17:01;;;;;;;20.48;18.50;;;5.50;99.90;;;;;;5207955;28;20029;-76
2023/12/12 03:19:32;;;;;;;22.23;19.85;;;5.50;99.90;;;;;;5207891;28;20446;-75
2023/12/12 03:22:03;;;;;;;23.88;21.42;;;5.50;99.90;;;;;;5208132;28;20548;-75
2023/12/12 03:24:34;;;;;;;20.90;18.90;;;5.50;99.90;;;;;;5206794;28;20038;-76
2023/12/12 03:27:06;;;;;;;21.63;19.58;;;5.40;99.90;;;;;;5207653;28;20030;-75
2023/12/12 03:29:38;;;;;;;25.60;22.85;;;5.50;99.90;;;;;;5207605;28;20112;-76
2023/12/12 03:32:09;;;;;;;23.13;20.88;;;5.60;99.90;;;;;;5189961;28;20026;-76
2023/12/12 03:34:40;;;;;;;23.95;21.65;;;5.40;99.90;;;;;;5189735;28;20021;-76
2023/12/12 03:37:12;;;;;;;26.02;23.50;;;5.50;99.90;;;;;;5189459;28;20048;-76
2023/12/12 03:39:43;;;;;;;27.30;24.60;;;5.60;99.90;;;;;;5207673;28;20354;-76
2023/12/12 03:42:13;;;;;;;26.90;24.27;;;5.60;99.90;;;;;;5189707;28;20032;-76
2023/12/12 03:44:44;;;;;;;28.52;25.83;;;5.70;99.90;;;;;;5207192;28;20037;-76
2023/12/12 03:47:15;;;;;;;32.20;28.90;;;5.60;99.90;;;;;;5207364;28;20079;-75
2023/12/12 03:49:46;;;;;;;35.13;31.38;;;5.60;99.90;;;;;;5207402;28;20032;-76
2023/12/12 03:52:17;;;;;;;34.50;30.90;;;5.50;99.90;;;;;;5189218;28;20029;-76
2023/12/12 03:54:48;;;;;;;33.95;29.02;;;5.60;99.90;;;;;;5207580;28;20025;-76
2023/12/12 03:57:19;;;;;;;35.33;31.65;;;5.60;99.90;;;;;;5207286;28;20071;-76
2023/12/12 03:59:50;;;;;;;34.55;30.63;;;5.50;99.90;;;;;;5207253;28;20025;-75
2023/12/12 04:02:21;;;;;;;35.70;30.88;;;5.50;99.90;;;;;;5207297;28;20044;-76
2023/12/12 04:04:52;;;;;;;39.03;30.55;;;5.50;99.90;;;;;;5189243;28;20041;-76
2023/12/12 04:07:23;;;;;;;32.72;29.20;;;5.40;99.90;;;;;;5189339;28;20055;-76
2023/12/12 04:09:53;;;;;;;34.92;31.17;;;5.40;99.90;;;;;;5189112;28;20484;-76
2023/12/12 04:12:24;;;;;;;31.33;28.13;;;5.70;99.90;;;;;;5207028;28;20026;-75
2023/12/12 04:14:55;;;;;;;32.45;28.95;;;5.60;99.90;;;;;;5188912;28;20025;-76
2023/12/12 04:17:26;;;;;;;31.80;28.40;;;5.70;99.90;;;;;;5188966;28;20033;-75
2023/12/12 04:19:57;;;;;;;32.88;29.38;;;5.70;99.90;;;;;;5207042;28;20461;-76
2023/12/12 04:22:28;;;;;;;31.52;28.23;;;5.60;99.90;;;;;;5206993;28;20025;-76
2023/12/12 04:24:59;;;;;;;31.55;27.65;;;5.70;99.90;;;;;;5206999;28;20362;-75
2023/12/12 04:27:30;;;;;;;32.53;29.02;;;5.70;99.90;;;;;;5189060;28;20032;-76
2023/12/12 04:30:04;;;;;;;34.20;30.63;;;5.70;99.90;;;;;;5206897;28;20037;-76
2023/12/12 04:32:35;;;;;;;30.05;26.85;;;5.60;99.90;;;;;;5207003;28;20017;-76
2023/12/12 04:35:10;;;;;;;32.03;28.50;;;5.80;99.90;;;;;;5188983;28;20393;-75
2023/12/12 04:37:41;;;;;;;36.17;32.20;;;5.80;99.90;;;;;;5210490;28;20033;-76
2023/12/12 04:40:12;;;;;;;34.60;30.50;;;5.70;99.90;;;;;;5210949;28;20358;-75
2023/12/12 04:42:44;;;;;;;35.10;29.50;;;5.80;99.90;;;;;;5211034;28;20093;-75
2023/12/12 04:45:15;;;;;;;32.42;28.75;;;5.60;99.90;;;;;;5193053;28;20481;-76
2023/12/12 04:47:46;;;;;;;32.85;28.88;;;5.60;99.90;;;;;;5210888;28;20048;-76
2023/12/12 04:50:17;;;;;;;33.60;28.23;;;5.70;99.90;;;;;;5210214;28;20096;-76
2023/12/12 04:52:48;;;;;;;34.05;30.45;;;5.70;99.90;;;;;;5192808;28;20469;-76
2023/12/12 04:55:19;;;;;;;34.60;30.13;;;5.70;99.90;;;;;;5192877;28;20034;-76
2023/12/12 04:57:50;;;;;;;38.08;31.30;;;5.60;99.90;;;;;;5210361;28;20091;-76
2023/12/12 05:00:21;;;;;;;33.97;29.17;;;5.50;99.90;;;;;;5210439;28;20038;-76
2023/12/12 05:02:51;;;;;;;91.20;62.33;;;5.50;99.90;;;;;;5210549;28;20072;-75
2023/12/12 05:05:22;;;;;;;99.60;65.68;;;5.60;99.90;;;;;;5192427;28;20435;-75
2023/12/12 05:07:53;;;;;;;113.88;82.13;;;5.60;99.90;;;;;;5210390;28;20109;-76
2023/12/12 05:10:24;;;;;;;109.50;75.30;;;5.70;99.90;;;;;;5210441;28;20531;-75
2023/12/12 05:12:55;;;;;;;80.25;57.83;;;5.80;99.90;;;;;;5210873;28;20031;-76
2023/12/12 05:15:27;;;;;;;69.97;51.22;;;5.90;99.90;;;;;;5210186;28;20021;-76
2023/12/12 05:17:58;;;;;;;89.10;62.10;;;5.80;99.90;;;;;;5210562;28;20428;-76
2023/12/12 05:20:29;;;;;;;69.75;52.95;;;6.00;99.90;;;;;;5209873;28;20037;-76
2023/12/12 05:23:00;;;;;;;63.55;51.03;;;5.90;99.90;;;;;;5210360;28;20108;-75
2023/12/12 05:28:11;;;;;;;61.92;51.25;;;6.10;99.90;;;;;;5511522;22;20445;-75
2023/12/12 05:30:42;;;;;;;63.78;51.55;;;6.10;99.90;;;;;;5189745;28;20033;-76
2023/12/12 05:33:13;;;;;;;52.65;43.42;;;6.10;99.90;;;;;;5189601;28;20026;-76
2023/12/12 05:35:44;;;;;;;51.75;43.05;;;6.10;99.90;;;;;;5189546;28;20108;-76
2023/12/12 05:38:15;;;;;;;50.10;42.42;;;6.20;99.90;;;;;;5189624;28;20028;-75
2023/12/12 05:40:46;;;;;;;51.35;43.78;;;6.10;99.90;;;;;;5171789;28;20036;-76
2023/12/12 05:43:17;;;;;;;48.80;43.13;;;6.00;99.90;;;;;;5189251;28;20026;-76
2023/12/12 05:45:48;;;;;;;47.85;42.10;;;6.10;99.90;;;;;;5188763;28;20092;-76
2023/12/12 05:48:18;;;;;;;61.47;49.00;;;6.10;99.90;;;;;;5187913;28;20148;-76
2023/12/12 05:50:49;;;;;;;54.08;43.05;;;6.00;99.90;;;;;;5188819;28;20108;-76
2023/12/12 05:53:20;;;;;;;55.03;44.58;;;6.20;99.90;;;;;;5171493;28;20021;-76
2023/12/12 05:55:51;;;;;;;59.25;48.20;;;6.20;99.90;;;;;;5188936;28;20037;-76
2023/12/12 05:58:22;;;;;;;53.40;44.20;;;6.20;99.90;;;;;;5188731;28;20021;-76
2023/12/12 06:00:53;;;;;;;57.65;46.47;;;6.20;99.90;;;;;;5188996;28;20108;-75
2023/12/12 06:03:24;;;;;;;54.10;45.28;;;6.30;99.90;;;;;;5188752;28;20029;-76
2023/12/12 06:05:55;;;;;;;50.95;44.42;;;6.30;99.90;;;;;;5171308;28;20067;-75
2023/12/12 06:08:26;;;;;;;59.78;50.17;;;6.30;99.90;;;;;;5188768;28;20034;-76
2023/12/12 06:10:57;;;;;;;56.45;47.67;;;6.40;99.90;;;;;;5188440;28;20052;-75
2023/12/12 06:13:28;;;;;;;152.68;101.72;;;6.50;99.90;;;;;;5188760;28;20022;-76
2023/12/12 06:15:59;;;;;;;145.73;102.50;;;6.40;99.90;;;;;;5171195;28;20080;-75
2023/12/12 06:18:30;;;;;;;181.70;121.50;;;6.50;99.90;;;;;;5188350;28;20033;-76
2023/12/12 06:21:02;;;;;;;134.90;94.03;;;6.40;99.90;;;;;;5188464;28;20477;-75
2023/12/12 06:23:33;;;;;;;90.80;67.20;;;6.60;99.90;;;;;;5170828;28;20121;-75
2023/12/12 06:26:04;;;;;;;72.80;56.92;;;6.30;99.90;;;;;;5188293;28;20448;-76
2023/12/12 06:28:35;;;;;;;66.30;54.92;;;6.40;99.90;;;;;;5188369;28;20042;-75
2023/12/12 06:31:07;;;;;;;57.85;46.97;;;6.50;99.90;;;;;;5188309;28;20144;-76
2023/12/12 06:33:38;;;;;;;61.47;47.58;;;6.40;99.90;;;;;;5188595;28;20560;-75
2023/12/12 06:36:09;;;;;;;57.38;43.22;;;6.50;99.90;;;;;;5170438;28;20021;-76
2023/12/12 06:38:42;;;;;;;54.28;42.08;;;6.60;99.90;;;;;;5170529;28;20121;-76
2023/12/12 06:41:13;;;;;;;51.70;41.33;;;6.70;99.90;;;;;;5188496;28;20851;-76
2023/12/12 06:43:44;;;;;;;54.35;43.50;;;6.80;99.90;;;;;;5188068;28;20026;-76
2023/12/12 06:46:18;;;;;;;57.67;41.72;;;6.70;99.90;;;;;;5170093;28;20037;-76
2023/12/12 06:48:49;;;;;;;52.70;42.00;;;7.00;99.90;;;;;;5167816;28;20030;-76
2023/12/12 06:51:20;;;;;;;53.85;44.85;;;7.10;99.90;;;;;;5150309;28;20077;-76
2023/12/12 06:53:52;;;;;;;58.35;48.33;;;7.00;99.90;;;;;;5149996;28;20038;-76
2023/12/12 06:56:24;;;;;;;54.70;41.75;;;7.10;99.90;;;;;;5167486;28;20118;-76
2023/12/12 06:58:55;;;;;;;56.47;45.75;;;7.10;99.90;;;;;;5167384;28;20466;-75
2023/12/12 07:01:26;;;;;;;66.57;50.95;;;7.10;99.90;;;;;;5149674;28;20033;-75
2023/12/12 07:03:57;;;;;;;62.10;48.67;;;7.30;99.90;;;;;;5167441;28;20057;-76
2023/12/12 07:06:28;;;;;;;64.15;46.20;;;7.30;99.90;;;;;;5167854;28;20418;-76
2023/12/12 07:08:59;;;;;;;57.80;44.60;;;7.40;99.90;;;;;;5167478;28;20050;-76
2023/12/12 07:11:31;;;;;;;62.25;45.13;;;7.60;99.90;;;;;;5166987;28;20115;-76
2023/12/12 07:14:02;;;;;;;61.88;44.05;;;7.40;99.90;;;;;;5167110;28;20036;-76
2023/12/12 07:16:34;;;;;;;65.15;46.35;;;7.70;99.90;;;;;;5167125;28;20027;-77
2023/12/12 07:19:05;;;;;;;65.00;45.50;;;7.60;99.90;;;;;;5166972;28;20429;-76
2023/12/12 07:21:41;;;;;;;65.75;44.42;;;7.70;99.90;;;;;;5174455;28;20013;-75
2023/12/12 07:24:14;;;;;;;66.25;45.47;;;7.80;99.90;;;;;;5187639;28;20092;-76
2023/12/12 07:26:45;;;;;;;65.07;48.38;;;7.80;99.90;;;;;;5169328;28;20057;-75
2023/12/12 07:29:19;;;;;;;65.38;49.00;;;7.70;99.90;;;;;;5187405;28;20026;-76
2023/12/12 07:31:50;;;;;;;75.28;57.15;;;7.70;99.90;;;;;;5187296;28;20474;-76
2023/12/12 07:34:21;;;;;;;71.78;55.78;;;7.80;99.90;;;;;;5187074;28;20029;-75
2023/12/12 07:36:51;;;;;;;76.18;53.40;;;7.80;99.90;;;;;;5169037;28;20029;-75
2023/12/12 07:39:22;;;;;;;70.38;55.63;;;7.90;99.90;;;;;;5169273;28;20535;-78
2023/12/12 07:41:53;;;;;;;74.15;50.63;;;7.90;99.90;;;;;;5168681;28;20069;-77
2023/12/12 07:44:24;;;;;;;76.15;54.53;;;7.90;99.90;;;;;;5169382;28;20485;-77
2023/12/12 07:46:55;;;;;;;71.10;52.97;;;7.90;99.90;;;;;;5164027;28;20025;-78
2023/12/12 07:49:26;;;;;;;73.38;51.10;;;8.00;99.90;;;;;;5182470;28;20049;-75
2023/12/12 07:51:57;;;;;;;82.53;54.03;;;8.10;99.90;;;;;;5181277;28;20068;-77
2023/12/12 07:54:28;;;;;;;85.38;60.08;;;8.10;99.90;;;;;;5165857;28;20037;-75
2023/12/12 07:56:59;;;;;;;74.68;55.28;;;8.30;99.90;;;;;;5164239;28;20500;-75
2023/12/12 07:59:30;;;;;;;70.82;51.97;;;8.40;99.90;;;;;;5177729;28;20080;-75
2023/12/12 08:02:01;;;;;;;92.72;68.85;;;8.60;99.90;;;;;;5183633;28;20037;-76
2023/12/12 08:04:32;;;;;;;89.30;64.57;;;8.70;99.90;;;;;;5165386;28;20057;-76
2023/12/12 08:07:04;;;;;;;85.15;60.42;;;8.80;99.90;;;;;;5184697;28;20092;-76
2023/12/12 08:09:36;;;;;;;74.63;56.08;;;8.70;99.90;;;;;;5155551;28;20025;-75
2023/12/12 08:12:07;;;;;;;78.00;54.28;;;8.90;99.90;;;;;;5178022;28;20164;-75
2023/12/12 08:14:38;;;;;;;72.72;54.13;;;8.90;99.90;;;;;;5178272;28;20105;-77
2023/12/12 08:17:08;;;;;;;75.00;53.80;;;9.00;99.90;;;;;;5177093;28;20030;-75
2023/12/12 08:19:39;;;;;;;71.88;52.95;;;8.90;99.90;;;;;;5184678;28;20422;-77
2023/12/12 08:22:10;;;;;;;75.55;53.42;;;9.20;99.90;;;;;;5186577;28;20037;-75
2023/12/12 08:24:41;;;;;;;76.35;54.70;;;9.30;99.90;;;;;;5186320;28;20568;-75
2023/12/12 08:27:12;;;;;;;68.60;52.38;;;9.20;99.90;;;;;;5168314;28;20050;-77
2023/12/12 08:29:45;;;;;;;71.32;51.47;;;9.40;99.90;;;;;;5186488;28;20404;-76
2023/12/12 08:32:16;;;;;;;73.25;51.45;;;9.30;99.90;;;;;;5168596;28;20036;-76
2023/12/12 08:34:47;;;;;;;76.07;54.88;;;9.40;99.90;;;;;;5186221;28;20030;-75
2023/12/12 08:37:17;;;;;;;74.78;53.17;;;9.40;99.90;;;;;;5168787;28;20080;-77
2023/12/12 08:39:48;;;;;;;75.85;52.08;;;9.50;99.90;;;;;;5186047;28;20036;-76
2023/12/12 08:42:19;;;;;;;79.15;55.25;;;9.30;99.90;;;;;;5186168;28;20033;-76
2023/12/12 08:44:50;;;;;;;73.30;51.47;;;9.50;99.90;;;;;;5185869;28;20084;-77
2023/12/12 08:47:21;;;;;;;71.93;51.95;;;9.70;99.90;;;;;;5186252;28;20068;-75
2023/12/12 08:49:52;;;;;;;70.15;52.67;;;9.70;99.90;;;;;;5185557;28;20030;-75
2023/12/12 08:52:23;;;;;;;68.70;50.42;;;10.00;99.90;;;;;;5168268;28;20018;-77
2023/12/12 08:54:53;;;;;;;66.35;51.33;;;9.90;99.90;;;;;;5167993;28;20033;-77
2023/12/12 08:57:24;;;;;;;70.13;54.22;;;10.10;99.90;;;;;;5185349;28;20026;-77
2023/12/12 08:59:55;;;;;;;66.97;53.42;;;10.30;99.90;;;;;;5186328;28;20030;-76
2023/12/12 09:02:26;;;;;;;71.95;54.90;;;10.40;99.90;;;;;;5168280;28;20026;-76
2023/12/12 09:04:58;;;;;;;71.80;55.97;;;10.40;99.90;;;;;;5168368;28;20156;-76
2023/12/12 09:07:29;;;;;;;68.40;56.53;;;10.60;99.90;;;;;;5168531;28;20022;-77
2023/12/12 09:10:02;;;;;;;69.40;57.25;;;10.70;99.90;;;;;;5185896;28;20038;-75
2023/12/12 09:12:34;;;;;;;75.05;57.53;;;10.70;99.90;;;;;;5185758;28;20022;-77
2023/12/12 09:15:08;;;;;;;74.28;58.47;;;10.70;99.90;;;;;;5185941;28;20049;-75
2023/12/12 09:17:39;;;;;;;66.72;54.70;;;11.00;99.90;;;;;;5185814;28;20088;-75
2023/12/12 09:20:12;;;;;;;64.75;52.83;;;10.90;99.90;;;;;;5185778;28;20034;-75
2023/12/12 09:22:42;;;;;;;69.05;55.60;;;11.00;99.90;;;;;;5185930;28;20025;-76
2023/12/12 09:25:13;;;;;;;68.32;55.08;;;11.20;99.90;;;;;;5176144;28;20371;-75
2023/12/12 09:27:45;;;;;;;61.28;50.67;;;11.00;99.90;;;;;;5168705;28;20046;-76
2023/12/12 09:30:16;;;;;;;60.92;51.38;;;11.10;99.90;;;;;;5169004;28;20113;-76
2023/12/12 09:32:47;;;;;;;60.35;52.55;;;11.20;99.90;;;;;;5169283;28;20061;-74
2023/12/12 09:35:18;;;;;;;62.22;51.35;;;11.30;99.90;;;;;;5168898;28;20031;-77
2023/12/12 09:37:49;;;;;;;56.92;48.53;;;11.50;99.90;;;;;;5179308;28;20056;-77
2023/12/12 09:40:20;;;;;;;56.15;48.20;;;11.60;99.90;;;;;;5188372;28;20044;-74
2023/12/12 09:42:52;;;;;;;58.30;48.65;;;11.50;99.90;;;;;;5188246;28;20153;-77
2023/12/12 09:45:25;;;;;;;48.80;40.78;;;11.80;99.90;;;;;;5175178;28;20038;-76
2023/12/12 09:47:56;;;;;;;41.42;36.85;;;11.80;99.90;;;;;;5185517;28;20068;-77
2023/12/12 09:50:27;;;;;;;43.78;37.13;;;11.80;99.90;;;;;;5188624;28;20029;-78
2023/12/12 09:53:00;;;;;;;40.20;34.38;;;12.00;99.90;;;;;;5188840;28;20434;-77
2023/12/12 09:55:31;;;;;;;46.72;40.08;;;12.20;99.90;;;;;;5188429;28;20022;-78
2023/12/12 09:58:02;;;;;;;45.10;37.78;;;12.20;99.90;;;;;;5188401;28;20056;-78
2023/12/12 10:00:33;;;;;;;48.03;39.15;;;12.40;99.90;;;;;;5170769;28;20096;-78
2023/12/12 10:03:07;;;;;;;43.08;38.50;;;12.30;99.90;;;;;;5187317;28;20040;-78
2023/12/12 10:05:39;;;;;;;43.17;38.13;;;12.60;99.90;;;;;;5187238;28;20044;-78
2023/12/12 10:08:10;;;;;;;42.03;37.75;;;12.40;99.90;;;;;;5186445;28;20105;-78
2023/12/12 10:10:42;;;;;;;43.90;39.20;;;12.40;99.90;;;;;;5186579;28;20037;-77
2023/12/12 10:13:13;;;;;;;42.90;38.33;;;12.50;99.90;;;;;;5186850;28;20469;-78
2023/12/12 10:15:45;;;;;;;44.75;39.95;;;12.50;99.90;;;;;;5186725;28;20037;-76
2023/12/12 10:18:16;;;;;;;44.30;39.50;;;12.60;99.90;;;;;;5186444;28;20076;-77
2023/12/12 10:20:47;;;;;;;43.35;38.63;;;12.40;99.90;;;;;;5186539;28;20022;-78
2023/12/12 10:23:18;;;;;;;43.97;39.38;;;12.40;99.90;;;;;;5186013;28;20075;-76
2023/12/12 10:25:49;;;;;;;42.03;36.90;;;12.30;99.90;;;;;;5185593;28;20121;-73
2023/12/12 10:28:20;;;;;;;46.22;40.45;;;12.50;99.90;;;;;;5183480;28;20124;-73
2023/12/12 10:30:52;;;;;;;49.42;42.45;;;12.50;99.90;;;;;;5188116;28;20177;-74
2023/12/12 10:33:27;;;;;;;44.67;39.80;;;12.50;99.90;;;;;;5187729;28;20859;-75
2023/12/12 10:36:03;;;;;;;44.08;39.45;;;12.50;99.90;;;;;;5187577;28;20034;-74
2023/12/12 10:38:35;;;;;;;46.70;40.03;;;12.50;99.90;;;;;;5188044;28;20028;-75
2023/12/12 10:41:19;;;;;;;48.35;41.20;;;12.50;99.90;;;;;;5170252;28;20029;-76
2023/12/12 10:43:50;;;;;;;50.38;41.75;;;12.50;99.90;;;;;;5178112;28;20096;-77
2023/12/12 10:46:23;;;;;;;45.83;40.58;;;12.40;99.90;;;;;;5187644;28;20107;-75
2023/12/12 10:48:55;;;;;;;46.25;41.00;;;12.50;99.90;;;;;;5169791;28;20488;-74
2023/12/12 10:51:27;;;;;;;46.97;40.53;;;12.60;99.90;;;;;;5170276;28;20034;-74
2023/12/12 10:54:00;;;;;;;48.85;40.47;;;12.70;99.90;;;;;;5186886;28;20052;-74
2023/12/12 10:56:35;;;;;;;49.45;39.88;;;12.70;99.90;;;;;;5168998;28;20598;-75
2023/12/12 10:59:07;;;;;;;44.30;39.65;;;12.60;99.90;;;;;;5186976;28;20022;-74
2023/12/12 11:01:39;;;;;;;42.65;38.00;;;12.70;99.90;;;;;;5186815;28;20470;-77
2023/12/12 11:04:10;;;;;;;43.30;38.70;;;12.80;99.90;;;;;;5187304;28;20440;-75
2023/12/12 11:06:46;;;;;;;42.95;38.40;;;13.00;99.90;;;;;;5169613;28;20553;-75
2023/12/12 11:09:18;;;;;;;41.40;37.00;;;12.80;99.90;;;;;;5166146;28;20018;-74
2023/12/12 11:11:52;;;;;;;42.22;37.95;;;12.90;99.90;;;;;;5179203;28;20112;-77
2023/12/12 11:14:24;;;;;;;42.65;37.65;;;13.00;99.90;;;;;;5168203;28;20034;-74
2023/12/12 11:16:59;;;;;;;44.72;38.53;;;12.80;99.90;;;;;;5185505;28;20033;-74
2023/12/12 11:19:30;;;;;;;41.63;37.15;;;12.80;99.90;;;;;;5185366;28;20072;-76
2023/12/12 11:22:00;;;;;;;47.95;42.65;;;12.90;99.90;;;;;;5185627;28;20466;-76
2023/12/12 11:25:01;;;;;;;43.92;39.25;;;12.80;99.90;;;;;;5186231;28;20042;-75
2023/12/12 11:27:33;;;;;;;41.15;36.60;;;12.80;99.90;;;;;;5173251;28;20412;-78
2023/12/12 11:30:06;;;;;;;42.72;38.30;;;12.90;99.90;;;;;;5186225;28;20026;-78
2023/12/12 11:32:37;;;;;;;46.75;41.75;;;13.10;99.90;;;;;;5185440;28;20022;-75
2023/12/12 11:35:29;;;;;;;50.97;45.42;;;12.90;99.90;;;;;;5168362;28;20084;-74
2023/12/12 11:38:04;;;;;;;61.47;54.75;;;13.10;99.90;;;;;;5169082;28;20049;-74
2023/12/12 11:40:37;;;;;;;53.40;47.53;;;13.00;99.90;;;;;;5168184;28;20030;-74
2023/12/12 11:43:25;;;;;;;55.63;49.63;;;13.10;99.90;;;;;;5186445;28;20018;-74
2023/12/12 11:45:56;;;;;;;54.92;49.25;;;13.30;99.90;;;;;;5185838;28;20056;-74
2023/12/12 11:48:27;;;;;;;60.15;53.72;;;13.40;99.90;;;;;;5186293;28;20034;-75
2023/12/12 11:50:58;;;;;;;59.53;53.30;;;13.50;99.90;;;;;;5168436;28;20048;-75
2023/12/12 11:53:40;;;;;;;56.75;50.78;;;13.50;99.90;;;;;;5168215;28;20022;-74
2023/12/12 11:56:15;;;;;;;57.15;51.13;;;13.50;99.90;;;;;;5185801;28;20041;-74
2023/12/12 11:58:50;;;;;;;55.38;49.50;;;13.70;99.90;;;;;;5185800;28;20599;-74
2023/12/12 12:01:25;;;;;;;53.28;47.47;;;13.60;99.90;;;;;;5185351;28;20034;-74
2023/12/12 12:03:56;;;;;;;51.35;46.20;;;13.70;99.90;;;;;;5185422;28;20145;-74
2023/12/12 12:06:29;;;;;;;51.05;44.60;;;13.90;99.90;;;;;;5185398;28;20053;-75
2023/12/12 12:09:00;;;;;;;49.92;43.88;;;14.10;99.90;;;;;;5167491;28;20116;-74
2023/12/12 12:11:47;;;;;;;55.92;49.90;;;13.80;99.90;;;;;;5184880;28;20033;-74
2023/12/12 12:14:23;;;;;;;37.53;33.83;;;14.00;99.90;;;;;;5184810;28;20784;-74
2023/12/12 12:16:55;;;;;;;33.95;30.30;;;13.90;99.90;;;;;;5167116;28;20458;-75
2023/12/12 12:19:31;;;;;;;32.75;29.45;;;13.90;99.90;;;;;;5166834;28;20026;-77
2023/12/12 12:22:19;;;;;;;29.95;27.13;;;14.00;99.90;;;;;;5184910;28;20026;-74
2023/12/12 12:24:50;;;;;;;28.70;25.80;;;14.40;99.90;;;;;;5185227;28;20046;-74
2023/12/12 12:27:21;;;;;;;27.10;24.13;;;15.10;99.90;;;;;;5167191;28;20375;-74
2023/12/12 12:30:00;;;;;;;28.80;26.02;;;16.10;99.90;;;;;;5185581;28;20034;-75
2023/12/12 12:32:32;;;;;;;34.45;31.17;;;18.90;99.90;;;;;;5185339;28;20168;-74
2023/12/12 12:35:10;;;;;;;26.92;24.20;;;23.20;99.90;;;;;;5185036;28;20030;-74
2023/12/12 12:37:41;;;;;;;25.73;23.13;;;19.10;99.90;;;;;;5185662;28;20026;-74
2023/12/12 12:40:29;;;;;;;32.00;28.73;;;16.90;99.90;;;;;;5185429;28;20674;-75
2023/12/12 12:43:04;;;;;;;27.15;24.30;;;18.20;99.90;;;;;;5185296;28;20026;-74
2023/12/12 12:45:35;;;;;;;49.20;33.30;;;16.00;99.90;;;;;;5185472;28;20397;-74
2023/12/12 12:48:06;;;;;;;29.27;25.75;;;15.00;99.90;;;;;;5185372;28;20088;-74
2023/12/12 12:50:40;;;;;;;26.35;23.92;;;14.90;99.90;;;;;;5184814;28;20109;-74
2023/12/12 12:53:11;;;;;;;24.42;22.30;;;18.80;99.90;;;;;;5167582;28;20057;-74
2023/12/12 12:55:42;;;;;;;25.60;23.20;;;16.20;99.90;;;;;;5185017;28;20072;-74
2023/12/12 12:58:14;;;;;;;28.38;25.70;;;14.90;99.90;;;;;;5187732;28;20725;-75